sensor_id;sensor_type;location;lat;lon;timestamp;temperature;humidity
18934;DHT22;9599;53.706;10.384;2023-05-17T00:02:27;9.50;99.90
18934;DHT22;9599;53.706;10.384;2023-05-17T00:04:55;9.50;99.90
18934;DHT22;9599;53.706;10.384;2023-05-17T00:07:23;9.50;99.90
18934;DHT22;9599;53.706;10.384;2023-05-17T00:09:52;9.40;99.90
18934;DHT22;9599;53.706;10.384;2023-05-17T00:12:21;9.30;99.90
18934;DHT22;9599;53.706;10.384;2023-05-17T00:14:49;9.30;99.90
18934;DHT22;9599;53.706;10.384;2023-05-17T00:17:17;9.30;99.90
18934;DHT22;9599;53.706;10.384;2023-05-17T00:19:45;9.20;99.90
18934;DHT22;9599;53.706;10.384;2023-05-17T00:22:13;9.20;99.90
18934;DHT22;9599;53.706;10.384;2023-05-17T00:24:41;9.20;99.90
18934;DHT22;9599;53.706;10.384;2023-05-17T00:27:11;9.10;99.90
18934;DHT22;9599;53.706;10.384;2023-05-17T00:29:39;9.10;99.90
18934;DHT22;9599;53.706;10.384;2023-05-17T00:32:07;9.10;99.90
18934;DHT22;9599;53.706;10.384;2023-05-17T00:34:35;9.10;99.90
18934;DHT22;9599;53.706;10.384;2023-05-17T00:37:03;9.10;99.90
18934;DHT22;9599;53.706;10.384;2023-05-17T00:39:31;9.00;99.90
18934;DHT22;9599;53.706;10.384;2023-05-17T00:42:00;9.00;99.90
18934;DHT22;9599;53.706;10.384;2023-05-17T00:44:29;8.90;99.90
18934;DHT22;9599;53.706;10.384;2023-05-17T00:46:57;8.90;99.90
18934;DHT22;9599;53.706;10.384;2023-05-17T00:49:25;8.80;99.90
18934;DHT22;9599;53.706;10.384;2023-05-17T00:51:54;8.80;99.90
18934;DHT22;9599;53.706;10.384;2023-05-17T00:54:22;8.80;99.90
18934;DHT22;9599;53.706;10.384;2023-05-17T00:56:51;8.80;99.90
18934;DHT22;9599;53.706;10.384;2023-05-17T00:59:20;8.80;99.90
18934;DHT22;9599;53.706;10.384;2023-05-17T01:01:51;8.80;99.90
18934;DHT22;9599;53.706;10.384;2023-05-17T01:04:19;8.70;99.90
18934;DHT22;9599;53.706;10.384;2023-05-17T01:06:48;8.60;99.90
18934;DHT22;9599;53.706;10.384;2023-05-17T01:09:16;8.60;99.90
18934;DHT22;9599;53.706;10.384;2023-05-17T01:11:53;8.60;99.90
18934;DHT22;9599;53.706;10.384;2023-05-17T01:14:32;8.60;99.90
18934;DHT22;9599;53.706;10.384;2023-05-17T01:17:05;8.70;99.90
18934;DHT22;9599;53.706;10.384;2023-05-17T01:19:49;8.70;99.90
18934;DHT22;9599;53.706;10.384;2023-05-17T01:22:26;8.80;99.90
18934;DHT22;9599;53.706;10.384;2023-05-17T01:25:11;8.80;99.90
18934;DHT22;9599;53.706;10.384;2023-05-17T01:27:47;8.80;99.90
18934;DHT22;9599;53.706;10.384;2023-05-17T01:30:17;8.80;99.90
18934;DHT22;9599;53.706;10.384;2023-05-17T01:32:46;8.90;99.90
18934;DHT22;9599;53.706;10.384;2023-05-17T01:35:15;8.80;99.90
18934;DHT22;9599;53.706;10.384;2023-05-17T01:37:44;8.80;99.90
18934;DHT22;9599;53.706;10.384;2023-05-17T01:40:13;8.70;99.90
18934;DHT22;9599;53.706;10.384;2023-05-17T01:42:41;8.70;99.90
18934;DHT22;9599;53.706;10.384;2023-05-17T01:45:17;8.60;99.90
18934;DHT22;9599;53.706;10.384;2023-05-17T01:47:51;8.60;99.90
18934;DHT22;9599;53.706;10.384;2023-05-17T01:50:23;8.50;99.90
18934;DHT22;9599;53.706;10.384;2023-05-17T01:52:53;8.50;99.90
18934;DHT22;9599;53.706;10.384;2023-05-17T01:55:27;8.50;99.90
18934;DHT22;9599;53.706;10.384;2023-05-17T01:57:58;8.50;99.90
18934;DHT22;9599;53.706;10.384;2023-05-17T02:00:30;8.40;99.90
18934;DHT22;9599;53.706;10.384;2023-05-17T02:02:58;8.30;99.90
18934;DHT22;9599;53.706;10.384;2023-05-17T02:05:26;8.30;99.90
18934;DHT22;9599;53.706;10.384;2023-05-17T02:07:55;8.20;99.90
18934;DHT22;9599;53.706;10.384;2023-05-17T02:10:23;8.10;99.90
18934;DHT22;9599;53.706;10.384;2023-05-17T02:12:51;8.00;99.90
18934;DHT22;9599;53.706;10.384;2023-05-17T02:15:19;8.00;99.90
18934;DHT22;9599;53.706;10.384;2023-05-17T02:17:48;7.90;99.90
18934;DHT22;9599;53.706;10.384;2023-05-17T02:20:16;7.90;99.90
18934;DHT22;9599;53.706;10.384;2023-05-17T02:22:44;7.90;99.90
18934;DHT22;9599;53.706;10.384;2023-05-17T02:25:13;7.90;99.90
18934;DHT22;9599;53.706;10.384;2023-05-17T02:27:41;7.90;99.90
18934;DHT22;9599;53.706;10.384;2023-05-17T02:30:10;7.90;99.90
18934;DHT22;9599;53.706;10.384;2023-05-17T02:32:42;7.90;99.90
18934;DHT22;9599;53.706;10.384;2023-05-17T02:35:14;7.80;99.90
18934;DHT22;9599;53.706;10.384;2023-05-17T02:37:42;7.80;99.90
18934;DHT22;9599;53.706;10.384;2023-05-17T02:40:12;7.80;99.90
18934;DHT22;9599;53.706;10.384;2023-05-17T02:42:40;7.80;99.90
18934;DHT22;9599;53.706;10.384;2023-05-17T02:45:08;7.80;99.90
18934;DHT22;9599;53.706;10.384;2023-05-17T02:47:37;7.70;99.90
18934;DHT22;9599;53.706;10.384;2023-05-17T02:50:06;7.60;99.90
18934;DHT22;9599;53.706;10.384;2023-05-17T02:52:35;7.50;99.90
18934;DHT22;9599;53.706;10.384;2023-05-17T02:55:05;7.50;99.90
18934;DHT22;9599;53.706;10.384;2023-05-17T02:57:33;7.50;99.90
18934;DHT22;9599;53.706;10.384;2023-05-17T03:00:02;7.40;99.90
18934;DHT22;9599;53.706;10.384;2023-05-17T03:02:31;7.40;99.90
18934;DHT22;9599;53.706;10.384;2023-05-17T03:04:59;7.40;99.90
18934;DHT22;9599;53.706;10.384;2023-05-17T03:07:27;7.40;99.90
18934;DHT22;9599;53.706;10.384;2023-05-17T03:09:57;7.50;99.90
18934;DHT22;9599;53.706;10.384;2023-05-17T03:12:29;7.40;99.90
18934;DHT22;9599;53.706;10.384;2023-05-17T03:14:57;7.40;99.90
18934;DHT22;9599;53.706;10.384;2023-05-17T03:17:25;7.30;99.90
18934;DHT22;9599;53.706;10.384;2023-05-17T03:19:54;7.30;99.90
18934;DHT22;9599;53.706;10.384;2023-05-17T03:22:22;7.30;99.90
18934;DHT22;9599;53.706;10.384;2023-05-17T03:24:51;7.30;99.90
18934;DHT22;9599;53.706;10.384;2023-05-17T03:27:21;7.30;99.90
18934;DHT22;9599;53.706;10.384;2023-05-17T03:29:49;7.30;99.90
18934;DHT22;9599;53.706;10.384;2023-05-17T03:32:18;7.30;99.90
18934;DHT22;9599;53.706;10.384;2023-05-17T03:34:46;7.30;99.90
18934;DHT22;9599;53.706;10.384;2023-05-17T03:37:15;7.30;99.90
18934;DHT22;9599;53.706;10.384;2023-05-17T03:39:43;7.30;99.90
18934;DHT22;9599;53.706;10.384;2023-05-17T03:42:12;7.30;99.90
18934;DHT22;9599;53.706;10.384;2023-05-17T03:44:42;7.30;99.90
18934;DHT22;9599;53.706;10.384;2023-05-17T03:47:11;7.30;99.90
18934;DHT22;9599;53.706;10.384;2023-05-17T03:49:40;7.30;99.90
18934;DHT22;9599;53.706;10.384;2023-05-17T03:52:09;7.40;99.90
18934;DHT22;9599;53.706;10.384;2023-05-17T03:54:37;7.50;99.90
18934;DHT22;9599;53.706;10.384;2023-05-17T03:57:05;7.40;99.90
18934;DHT22;9599;53.706;10.384;2023-05-17T03:59:34;7.40;99.90
18934;DHT22;9599;53.706;10.384;2023-05-17T04:02:06;7.30;99.90
18934;DHT22;9599;53.706;10.384;2023-05-17T04:04:34;7.30;99.90
18934;DHT22;9599;53.706;10.384;2023-05-17T04:07:02;7.30;99.90
18934;DHT22;9599;53.706;10.384;2023-05-17T04:09:30;7.20;99.90
18934;DHT22;9599;53.706;10.384;2023-05-17T04:12:00;7.20;99.90
18934;DHT22;9599;53.706;10.384;2023-05-17T04:14:28;7.20;99.90
18934;DHT22;9599;53.706;10.384;2023-05-17T04:16:57;7.10;99.90
18934;DHT22;9599;53.706;10.384;2023-05-17T04:19:27;7.10;99.90
18934;DHT22;9599;53.706;10.384;2023-05-17T04:21:55;7.20;99.90
18934;DHT22;9599;53.706;10.384;2023-05-17T04:24:25;7.20;99.90
18934;DHT22;9599;53.706;10.384;2023-05-17T04:26:54;7.20;99.90
18934;DHT22;9599;53.706;10.384;2023-05-17T04:29:24;7.20;99.90
18934;DHT22;9599;53.706;10.384;2023-05-17T04:31:52;7.30;99.90
18934;DHT22;9599;53.706;10.384;2023-05-17T04:34:20;7.40;99.90
18934;DHT22;9599;53.706;10.384;2023-05-17T04:36:51;7.30;99.90
18934;DHT22;9599;53.706;10.384;2023-05-17T04:39:20;7.40;99.90
18934;DHT22;9599;53.706;10.384;2023-05-17T04:41:48;7.60;99.90
18934;DHT22;9599;53.706;10.384;2023-05-17T04:44:17;7.70;99.90
18934;DHT22;9599;53.706;10.384;2023-05-17T04:46:45;7.80;99.90
18934;DHT22;9599;53.706;10.384;2023-05-17T04:49:14;8.00;99.90
18934;DHT22;9599;53.706;10.384;2023-05-17T04:51:42;8.10;99.90
18934;DHT22;9599;53.706;10.384;2023-05-17T04:54:12;8.20;99.90
18934;DHT22;9599;53.706;10.384;2023-05-17T04:56:41;8.20;99.90
18934;DHT22;9599;53.706;10.384;2023-05-17T04:59:14;8.30;99.90
18934;DHT22;9599;53.706;10.384;2023-05-17T05:01:43;8.30;99.90
18934;DHT22;9599;53.706;10.384;2023-05-17T05:04:11;8.50;99.90
18934;DHT22;9599;53.706;10.384;2023-05-17T05:06:42;8.60;99.90
18934;DHT22;9599;53.706;10.384;2023-05-17T05:09:12;8.60;99.90
18934;DHT22;9599;53.706;10.384;2023-05-17T05:11:40;8.80;99.90
18934;DHT22;9599;53.706;10.384;2023-05-17T05:14:08;8.90;99.90
18934;DHT22;9599;53.706;10.384;2023-05-17T05:16:36;8.90;99.90
18934;DHT22;9599;53.706;10.384;2023-05-17T05:19:05;9.00;99.90
18934;DHT22;9599;53.706;10.384;2023-05-17T05:21:35;9.10;99.90
18934;DHT22;9599;53.706;10.384;2023-05-17T05:24:05;9.20;99.90
18934;DHT22;9599;53.706;10.384;2023-05-17T05:26:35;9.10;99.90
18934;DHT22;9599;53.706;10.384;2023-05-17T05:29:04;9.20;99.90
18934;DHT22;9599;53.706;10.384;2023-05-17T05:31:33;9.20;99.90
18934;DHT22;9599;53.706;10.384;2023-05-17T05:34:05;9.30;99.90
18934;DHT22;9599;53.706;10.384;2023-05-17T05:36:34;9.20;99.90
18934;DHT22;9599;53.706;10.384;2023-05-17T05:39:02;9.20;99.90
18934;DHT22;9599;53.706;10.384;2023-05-17T05:41:32;9.20;99.90
18934;DHT22;9599;53.706;10.384;2023-05-17T05:44:01;9.20;99.90
18934;DHT22;9599;53.706;10.384;2023-05-17T05:46:29;9.30;99.90
18934;DHT22;9599;53.706;10.384;2023-05-17T05:48:58;9.40;99.90
18934;DHT22;9599;53.706;10.384;2023-05-17T05:51:27;9.50;99.90
18934;DHT22;9599;53.706;10.384;2023-05-17T05:53:55;9.50;99.90
18934;DHT22;9599;53.706;10.384;2023-05-17T05:56:24;9.50;99.90
18934;DHT22;9599;53.706;10.384;2023-05-17T05:58:55;9.50;99.90
18934;DHT22;9599;53.706;10.384;2023-05-17T06:01:25;9.40;99.90
18934;DHT22;9599;53.706;10.384;2023-05-17T06:03:54;9.30;99.90
18934;DHT22;9599;53.706;10.384;2023-05-17T06:06:22;9.30;99.90
18934;DHT22;9599;53.706;10.384;2023-05-17T06:08:50;9.30;99.90
18934;DHT22;9599;53.706;10.384;2023-05-17T06:11:19;9.30;99.90
18934;DHT22;9599;53.706;10.384;2023-05-17T06:13:47;9.30;99.90
18934;DHT22;9599;53.706;10.384;2023-05-17T06:16:15;9.50;99.90
18934;DHT22;9599;53.706;10.384;2023-05-17T06:18:44;9.50;99.90
18934;DHT22;9599;53.706;10.384;2023-05-17T06:21:16;9.50;99.90
18934;DHT22;9599;53.706;10.384;2023-05-17T06:23:44;9.40;99.90
18934;DHT22;9599;53.706;10.384;2023-05-17T06:26:13;9.50;99.90
18934;DHT22;9599;53.706;10.384;2023-05-17T06:28:41;9.50;99.90
18934;DHT22;9599;53.706;10.384;2023-05-17T06:31:09;9.60;99.90
18934;DHT22;9599;53.706;10.384;2023-05-17T06:33:37;9.60;99.90
18934;DHT22;9599;53.706;10.384;2023-05-17T06:36:07;9.60;99.90
18934;DHT22;9599;53.706;10.384;2023-05-17T06:38:35;9.60;99.90
18934;DHT22;9599;53.706;10.384;2023-05-17T06:41:03;9.60;99.90
18934;DHT22;9599;53.706;10.384;2023-05-17T06:43:31;9.80;99.90
18934;DHT22;9599;53.706;10.384;2023-05-17T06:46:02;9.70;99.90
18934;DHT22;9599;53.706;10.384;2023-05-17T06:48:30;9.70;99.90
18934;DHT22;9599;53.706;10.384;2023-05-17T06:50:58;10.10;99.90
18934;DHT22;9599;53.706;10.384;2023-05-17T06:53:28;10.30;99.90
18934;DHT22;9599;53.706;10.384;2023-05-17T06:55:57;10.50;99.90
18934;DHT22;9599;53.706;10.384;2023-05-17T06:58:25;10.70;99.90
18934;DHT22;9599;53.706;10.384;2023-05-17T07:00:53;10.50;99.90
18934;DHT22;9599;53.706;10.384;2023-05-17T07:03:21;10.30;99.90
18934;DHT22;9599;53.706;10.384;2023-05-17T07:05:50;10.40;99.90
18934;DHT22;9599;53.706;10.384;2023-05-17T07:08:18;10.40;99.90
18934;DHT22;9599;53.706;10.384;2023-05-17T07:10:50;10.30;99.90
18934;DHT22;9599;53.706;10.384;2023-05-17T07:13:18;10.20;99.90
18934;DHT22;9599;53.706;10.384;2023-05-17T07:15:46;10.10;99.90
18934;DHT22;9599;53.706;10.384;2023-05-17T07:18:15;10.00;99.90
18934;DHT22;9599;53.706;10.384;2023-05-17T07:20:43;9.90;99.90
18934;DHT22;9599;53.706;10.384;2023-05-17T07:23:11;10.00;99.90
18934;DHT22;9599;53.706;10.384;2023-05-17T07:25:39;9.90;99.90
18934;DHT22;9599;53.706;10.384;2023-05-17T07:28:10;9.80;99.90
18934;DHT22;9599;53.706;10.384;2023-05-17T07:30:38;9.70;99.90
18934;DHT22;9599;53.706;10.384;2023-05-17T07:33:06;9.80;99.90
18934;DHT22;9599;53.706;10.384;2023-05-17T07:35:34;9.70;99.90
18934;DHT22;9599;53.706;10.384;2023-05-17T07:38:02;9.80;99.90
18934;DHT22;9599;53.706;10.384;2023-05-17T07:40:30;9.90;99.90
18934;DHT22;9599;53.706;10.384;2023-05-17T07:42:58;10.50;99.90
18934;DHT22;9599;53.706;10.384;2023-05-17T07:45:28;10.60;99.90
18934;DHT22;9599;53.706;10.384;2023-05-17T07:47:56;10.90;99.90
18934;DHT22;9599;53.706;10.384;2023-05-17T07:50:25;11.00;99.90
18934;DHT22;9599;53.706;10.384;2023-05-17T07:52:53;10.80;99.90
18934;DHT22;9599;53.706;10.384;2023-05-17T07:55:21;10.60;99.90
18934;DHT22;9599;53.706;10.384;2023-05-17T07:57:49;10.50;99.90
18934;DHT22;9599;53.706;10.384;2023-05-17T08:00:19;10.40;99.90
18934;DHT22;9599;53.706;10.384;2023-05-17T08:02:49;10.40;99.90
18934;DHT22;9599;53.706;10.384;2023-05-17T08:05:17;10.50;99.90
18934;DHT22;9599;53.706;10.384;2023-05-17T08:07:45;11.00;99.90
18934;DHT22;9599;53.706;10.384;2023-05-17T08:10:14;11.40;99.90
18934;DHT22;9599;53.706;10.384;2023-05-17T08:12:43;11.60;99.90
18934;DHT22;9599;53.706;10.384;2023-05-17T08:15:11;11.80;99.90
18934;DHT22;9599;53.706;10.384;2023-05-17T08:17:39;11.40;99.90
18934;DHT22;9599;53.706;10.384;2023-05-17T08:20:10;11.10;99.90
18934;DHT22;9599;53.706;10.384;2023-05-17T08:22:38;11.00;99.90
18934;DHT22;9599;53.706;10.384;2023-05-17T08:25:07;10.80;99.90
18934;DHT22;9599;53.706;10.384;2023-05-17T08:27:35;10.80;99.90
18934;DHT22;9599;53.706;10.384;2023-05-17T08:30:03;11.10;99.90
18934;DHT22;9599;53.706;10.384;2023-05-17T08:32:37;11.40;99.90
18934;DHT22;9599;53.706;10.384;2023-05-17T08:35:06;11.40;99.90
18934;DHT22;9599;53.706;10.384;2023-05-17T08:37:35;11.30;99.90
18934;DHT22;9599;53.706;10.384;2023-05-17T08:40:04;11.40;99.90
18934;DHT22;9599;53.706;10.384;2023-05-17T08:42:32;11.50;99.90
18934;DHT22;9599;53.706;10.384;2023-05-17T08:45:01;11.50;99.90
18934;DHT22;9599;53.706;10.384;2023-05-17T08:47:29;11.60;99.90
18934;DHT22;9599;53.706;10.384;2023-05-17T08:50:00;11.50;99.90
18934;DHT22;9599;53.706;10.384;2023-05-17T08:52:31;11.70;99.90
18934;DHT22;9599;53.706;10.384;2023-05-17T08:55:01;11.80;99.90
18934;DHT22;9599;53.706;10.384;2023-05-17T08:57:32;11.80;99.90
18934;DHT22;9599;53.706;10.384;2023-05-17T09:00:02;11.50;99.90
18934;DHT22;9599;53.706;10.384;2023-05-17T09:02:32;11.60;99.90
18934;DHT22;9599;53.706;10.384;2023-05-17T09:05:01;11.50;99.90
18934;DHT22;9599;53.706;10.384;2023-05-17T09:07:29;11.40;99.90
18934;DHT22;9599;53.706;10.384;2023-05-17T09:09:57;11.40;99.90
18934;DHT22;9599;53.706;10.384;2023-05-17T09:12:26;11.30;99.90
18934;DHT22;9599;53.706;10.384;2023-05-17T09:15:12;11.30;99.90
18934;DHT22;9599;53.706;10.384;2023-05-17T09:17:41;11.20;99.90
18934;DHT22;9599;53.706;10.384;2023-05-17T09:20:10;11.40;99.90
18934;DHT22;9599;53.706;10.384;2023-05-17T09:22:38;11.40;99.90
18934;DHT22;9599;53.706;10.384;2023-05-17T09:25:06;11.40;99.90
18934;DHT22;9599;53.706;10.384;2023-05-17T09:27:37;11.60;99.90
18934;DHT22;9599;53.706;10.384;2023-05-17T09:30:09;11.80;99.90
18934;DHT22;9599;53.706;10.384;2023-05-17T09:32:42;11.80;99.90
18934;DHT22;9599;53.706;10.384;2023-05-17T09:35:11;11.60;99.90
18934;DHT22;9599;53.706;10.384;2023-05-17T09:37:41;11.70;99.90
18934;DHT22;9599;53.706;10.384;2023-05-17T09:40:21;11.60;99.90
18934;DHT22;9599;53.706;10.384;2023-05-17T09:42:51;11.80;99.90
18934;DHT22;9599;53.706;10.384;2023-05-17T09:45:22;11.80;99.90
18934;DHT22;9599;53.706;10.384;2023-05-17T09:47:51;11.70;99.90
18934;DHT22;9599;53.706;10.384;2023-05-17T09:50:19;11.50;99.90
18934;DHT22;9599;53.706;10.384;2023-05-17T09:52:51;11.70;99.90
18934;DHT22;9599;53.706;10.384;2023-05-17T09:55:23;12.10;99.90
18934;DHT22;9599;53.706;10.384;2023-05-17T09:58:02;12.40;99.90
18934;DHT22;9599;53.706;10.384;2023-05-17T10:00:31;12.50;99.90
18934;DHT22;9599;53.706;10.384;2023-05-17T10:03:00;12.50;99.90
18934;DHT22;9599;53.706;10.384;2023-05-17T10:05:29;12.30;99.90
18934;DHT22;9599;53.706;10.384;2023-05-17T10:07:58;12.20;99.90
18934;DHT22;9599;53.706;10.384;2023-05-17T10:10:27;12.30;99.90
18934;DHT22;9599;53.706;10.384;2023-05-17T10:12:57;12.40;99.90
18934;DHT22;9599;53.706;10.384;2023-05-17T10:15:26;12.70;99.90
18934;DHT22;9599;53.706;10.384;2023-05-17T10:17:57;12.60;99.90
18934;DHT22;9599;53.706;10.384;2023-05-17T10:20:26;12.40;99.90
18934;DHT22;9599;53.706;10.384;2023-05-17T10:22:55;12.70;99.90
18934;DHT22;9599;53.706;10.384;2023-05-17T10:25:24;12.90;99.90
18934;DHT22;9599;53.706;10.384;2023-05-17T10:27:53;12.90;99.90
18934;DHT22;9599;53.706;10.384;2023-05-17T10:30:22;13.00;99.90
18934;DHT22;9599;53.706;10.384;2023-05-17T10:32:52;13.00;99.90
18934;DHT22;9599;53.706;10.384;2023-05-17T10:35:22;12.80;99.90
18934;DHT22;9599;53.706;10.384;2023-05-17T10:37:51;12.60;99.90
18934;DHT22;9599;53.706;10.384;2023-05-17T10:40:19;12.30;99.90
18934;DHT22;9599;53.706;10.384;2023-05-17T10:42:51;12.20;99.90
18934;DHT22;9599;53.706;10.384;2023-05-17T10:45:22;12.40;99.90
18934;DHT22;9599;53.706;10.384;2023-05-17T10:47:51;12.60;99.90
18934;DHT22;9599;53.706;10.384;2023-05-17T10:50:23;12.60;99.90
18934;DHT22;9599;53.706;10.384;2023-05-17T10:52:52;12.80;99.90
18934;DHT22;9599;53.706;10.384;2023-05-17T10:55:23;12.70;99.90
18934;DHT22;9599;53.706;10.384;2023-05-17T10:58:14;12.70;99.90
18934;DHT22;9599;53.706;10.384;2023-05-17T11:00:46;12.50;99.90
18934;DHT22;9599;53.706;10.384;2023-05-17T11:03:17;12.90;99.90
18934;DHT22;9599;53.706;10.384;2023-05-17T11:06:12;13.00;99.90
18934;DHT22;9599;53.706;10.384;2023-05-17T11:09:05;13.20;99.90
18934;DHT22;9599;53.706;10.384;2023-05-17T11:11:35;13.60;99.90
18934;DHT22;9599;53.706;10.384;2023-05-17T11:14:04;13.50;99.90
18934;DHT22;9599;53.706;10.384;2023-05-17T11:16:36;13.40;99.90
18934;DHT22;9599;53.706;10.384;2023-05-17T11:19:08;13.20;99.90
18934;DHT22;9599;53.706;10.384;2023-05-17T11:21:44;13.20;99.90
18934;DHT22;9599;53.706;10.384;2023-05-17T11:24:15;12.90;99.90
18934;DHT22;9599;53.706;10.384;2023-05-17T11:26:49;13.00;99.90
18934;DHT22;9599;53.706;10.384;2023-05-17T11:29:17;13.00;99.90
18934;DHT22;9599;53.706;10.384;2023-05-17T11:31:52;12.90;99.90
18934;DHT22;9599;53.706;10.384;2023-05-17T11:34:21;12.70;99.90
18934;DHT22;9599;53.706;10.384;2023-05-17T11:36:52;12.80;99.90
18934;DHT22;9599;53.706;10.384;2023-05-17T11:39:22;13.10;99.90
18934;DHT22;9599;53.706;10.384;2023-05-17T11:41:51;13.50;99.90
18934;DHT22;9599;53.706;10.384;2023-05-17T11:44:23;13.60;99.90
18934;DHT22;9599;53.706;10.384;2023-05-17T11:47:01;13.50;99.90
18934;DHT22;9599;53.706;10.384;2023-05-17T11:49:31;13.40;99.90
18934;DHT22;9599;53.706;10.384;2023-05-17T11:52:03;13.20;99.90
18934;DHT22;9599;53.706;10.384;2023-05-17T11:54:32;13.20;99.90
18934;DHT22;9599;53.706;10.384;2023-05-17T11:57:01;13.50;99.90
18934;DHT22;9599;53.706;10.384;2023-05-17T11:59:35;13.30;99.90
18934;DHT22;9599;53.706;10.384;2023-05-17T12:02:06;13.00;99.90
18934;DHT22;9599;53.706;10.384;2023-05-17T12:04:35;12.90;99.90
18934;DHT22;9599;53.706;10.384;2023-05-17T12:07:07;13.00;99.90
18934;DHT22;9599;53.706;10.384;2023-05-17T12:09:37;13.40;99.90
18934;DHT22;9599;53.706;10.384;2023-05-17T12:12:05;13.60;99.90
18934;DHT22;9599;53.706;10.384;2023-05-17T12:14:34;13.80;99.90
18934;DHT22;9599;53.706;10.384;2023-05-17T12:17:04;13.70;99.90
18934;DHT22;9599;53.706;10.384;2023-05-17T12:19:36;13.40;99.90
18934;DHT22;9599;53.706;10.384;2023-05-17T12:22:05;13.40;99.90
18934;DHT22;9599;53.706;10.384;2023-05-17T12:24:37;13.40;99.90
18934;DHT22;9599;53.706;10.384;2023-05-17T12:27:07;13.60;99.90
18934;DHT22;9599;53.706;10.384;2023-05-17T12:29:35;13.60;99.90
18934;DHT22;9599;53.706;10.384;2023-05-17T12:32:05;13.40;99.90
18934;DHT22;9599;53.706;10.384;2023-05-17T12:34:36;12.80;99.90
18934;DHT22;9599;53.706;10.384;2023-05-17T12:37:06;12.70;99.90
18934;DHT22;9599;53.706;10.384;2023-05-17T12:39:36;13.10;99.90
18934;DHT22;9599;53.706;10.384;2023-05-17T12:42:05;13.70;99.90
18934;DHT22;9599;53.706;10.384;2023-05-17T12:44:34;13.80;99.90
18934;DHT22;9599;53.706;10.384;2023-05-17T12:47:02;13.40;99.90
18934;DHT22;9599;53.706;10.384;2023-05-17T12:49:38;13.50;99.90
18934;DHT22;9599;53.706;10.384;2023-05-17T12:52:06;13.20;99.90
18934;DHT22;9599;53.706;10.384;2023-05-17T12:54:38;13.10;99.90
18934;DHT22;9599;53.706;10.384;2023-05-17T12:57:10;13.10;99.90
18934;DHT22;9599;53.706;10.384;2023-05-17T12:59:46;13.20;99.90
18934;DHT22;9599;53.706;10.384;2023-05-17T13:02:14;13.40;99.90
18934;DHT22;9599;53.706;10.384;2023-05-17T13:04:44;13.50;99.90
18934;DHT22;9599;53.706;10.384;2023-05-17T13:07:20;13.60;99.90
18934;DHT22;9599;53.706;10.384;2023-05-17T13:09:49;13.50;99.90
18934;DHT22;9599;53.706;10.384;2023-05-17T13:12:19;13.70;99.90
18934;DHT22;9599;53.706;10.384;2023-05-17T13:14:50;13.80;99.90
18934;DHT22;9599;53.706;10.384;2023-05-17T13:17:23;13.60;99.90
18934;DHT22;9599;53.706;10.384;2023-05-17T13:19:53;13.70;99.90
18934;DHT22;9599;53.706;10.384;2023-05-17T13:22:24;13.90;99.90
18934;DHT22;9599;53.706;10.384;2023-05-17T13:24:52;14.00;99.90
18934;DHT22;9599;53.706;10.384;2023-05-17T13:27:21;14.00;99.90
18934;DHT22;9599;53.706;10.384;2023-05-17T13:29:49;13.70;99.90
18934;DHT22;9599;53.706;10.384;2023-05-17T13:32:19;13.60;99.90
18934;DHT22;9599;53.706;10.384;2023-05-17T13:34:47;13.30;99.90
18934;DHT22;9599;53.706;10.384;2023-05-17T13:37:17;13.10;99.90
18934;DHT22;9599;53.706;10.384;2023-05-17T13:39:45;13.30;99.90
18934;DHT22;9599;53.706;10.384;2023-05-17T13:42:13;13.70;99.90
18934;DHT22;9599;53.706;10.384;2023-05-17T13:44:41;13.80;99.90
18934;DHT22;9599;53.706;10.384;2023-05-17T13:47:09;13.70;99.90
18934;DHT22;9599;53.706;10.384;2023-05-17T13:49:37;13.90;99.90
18934;DHT22;9599;53.706;10.384;2023-05-17T13:52:06;13.60;99.90
18934;DHT22;9599;53.706;10.384;2023-05-17T13:54:36;13.50;99.90
18934;DHT22;9599;53.706;10.384;2023-05-17T13:57:05;13.40;99.90
18934;DHT22;9599;53.706;10.384;2023-05-17T13:59:33;13.50;99.90
18934;DHT22;9599;53.706;10.384;2023-05-17T14:02:01;13.70;99.90
18934;DHT22;9599;53.706;10.384;2023-05-17T14:04:30;14.00;99.90
18934;DHT22;9599;53.706;10.384;2023-05-17T14:06:59;14.10;99.90
18934;DHT22;9599;53.706;10.384;2023-05-17T14:09:27;14.30;99.90
18934;DHT22;9599;53.706;10.384;2023-05-17T14:12:00;14.30;99.90
18934;DHT22;9599;53.706;10.384;2023-05-17T14:14:29;14.00;99.90
18934;DHT22;9599;53.706;10.384;2023-05-17T14:16:57;13.80;99.90
18934;DHT22;9599;53.706;10.384;2023-05-17T14:19:26;13.70;99.90
18934;DHT22;9599;53.706;10.384;2023-05-17T14:21:55;13.50;99.90
18934;DHT22;9599;53.706;10.384;2023-05-17T14:24:23;13.40;99.90
18934;DHT22;9599;53.706;10.384;2023-05-17T14:26:51;13.00;99.90
18934;DHT22;9599;53.706;10.384;2023-05-17T14:29:20;12.90;99.90
18934;DHT22;9599;53.706;10.384;2023-05-17T14:31:48;13.10;99.90
18934;DHT22;9599;53.706;10.384;2023-05-17T14:34:16;13.00;99.90
18934;DHT22;9599;53.706;10.384;2023-05-17T14:36:45;12.90;99.90
18934;DHT22;9599;53.706;10.384;2023-05-17T14:39:12;12.60;99.90
18934;DHT22;9599;53.706;10.384;2023-05-17T14:41:41;12.70;99.90
18934;DHT22;9599;53.706;10.384;2023-05-17T14:44:10;12.90;99.90
18934;DHT22;9599;53.706;10.384;2023-05-17T14:46:40;13.10;99.90
18934;DHT22;9599;53.706;10.384;2023-05-17T14:49:08;13.10;99.90
18934;DHT22;9599;53.706;10.384;2023-05-17T14:51:36;13.10;99.90
18934;DHT22;9599;53.706;10.384;2023-05-17T14:54:04;13.10;99.90
18934;DHT22;9599;53.706;10.384;2023-05-17T14:56:32;12.90;99.90
18934;DHT22;9599;53.706;10.384;2023-05-17T14:59:01;13.00;99.90
18934;DHT22;9599;53.706;10.384;2023-05-17T15:01:29;13.00;99.90
18934;DHT22;9599;53.706;10.384;2023-05-17T15:03:58;13.20;99.90
18934;DHT22;9599;53.706;10.384;2023-05-17T15:06:27;13.40;99.90
18934;DHT22;9599;53.706;10.384;2023-05-17T15:08:55;13.40;99.90
18934;DHT22;9599;53.706;10.384;2023-05-17T15:11:24;13.30;99.90
18934;DHT22;9599;53.706;10.384;2023-05-17T15:13:52;12.90;99.90
18934;DHT22;9599;53.706;10.384;2023-05-17T15:16:22;12.90;99.90
18934;DHT22;9599;53.706;10.384;2023-05-17T15:18:50;12.90;99.90
18934;DHT22;9599;53.706;10.384;2023-05-17T15:21:24;13.00;99.90
18934;DHT22;9599;53.706;10.384;2023-05-17T15:23:52;12.90;99.90
18934;DHT22;9599;53.706;10.384;2023-05-17T15:26:20;13.00;99.90
18934;DHT22;9599;53.706;10.384;2023-05-17T15:28:48;12.90;99.90
18934;DHT22;9599;53.706;10.384;2023-05-17T15:31:16;12.90;99.90
18934;DHT22;9599;53.706;10.384;2023-05-17T15:33:44;12.80;99.90
18934;DHT22;9599;53.706;10.384;2023-05-17T15:36:13;12.90;99.90
18934;DHT22;9599;53.706;10.384;2023-05-17T15:38:43;13.10;99.90
18934;DHT22;9599;53.706;10.384;2023-05-17T15:41:13;13.20;99.90
18934;DHT22;9599;53.706;10.384;2023-05-17T15:43:42;13.20;99.90
18934;DHT22;9599;53.706;10.384;2023-05-17T15:46:10;13.00;99.90
18934;DHT22;9599;53.706;10.384;2023-05-17T15:48:38;12.80;99.90
18934;DHT22;9599;53.706;10.384;2023-05-17T15:51:06;12.90;99.90
18934;DHT22;9599;53.706;10.384;2023-05-17T15:53:34;12.80;99.90